Terminal Aerodrome Forecast
Issued by NWS

Home | Current Version | Previous Version | Text Only | Print | Product List | Glossary On
Versions: 1 2 3 4 5 6 7 8 9 10 11 12 13 14
000
FTUS45 KABQ 280523
TAFROW
TAF
KROW 280523Z 2806/0106 17007KT P6SM BKN120
     FM281500 19016G26KT P6SM BKN120
     FM281900 24035G48KT 6SM BLDU BKN100
     FM010100 27024G34KT P6SM SCT120=

USA.gov is the U.S. government's official web portal to all federal, state and local government web resources and services.